Conroe's Hourly Summary for Wednesday, May 9, 2018
Hour Temp
(f)
RH
(%)
Solar Rad.
(MJ/m2)
Rainfall
(in)
Wind
(mph)
5/9/2018 12:00 AM 64 65 0 0 0
5/9/2018 1:00 AM 62 76 0 0 0
5/9/2018 2:00 AM 61 82 0 0 0
5/9/2018 3:00 AM 60 84 0 0 0
5/9/2018 4:00 AM 59 86 0 0 0
5/9/2018 5:00 AM 59 89 0 0 0
5/9/2018 6:00 AM 58 89 0.02 0 0
5/9/2018 7:00 AM 63 74 0.4 0 0
5/9/2018 8:00 AM 71 69 1.06 0 1.3
5/9/2018 9:00 AM 75 58 1.75 0 2.06
5/9/2018 10:00 AM 79 46 2.37 0 2.37
5/9/2018 11:00 AM 81 36 2.86 0 2.69
5/9/2018 12:00 PM 83 32 3.16 0 3.07
5/9/2018 1:00 PM 84 26 3.24 0 3.73
5/9/2018 2:00 PM 86 25 3.14 0 3.88
5/9/2018 3:00 PM 86 25 2.55 0 3.87
5/9/2018 4:00 PM 85 28 2.21 0 4.11
5/9/2018 5:00 PM 84 27 1.38 0 3.79
5/9/2018 6:00 PM 83 28 0.78 0 4.7
5/9/2018 7:00 PM 80 34 0.09 0 3.88
5/9/2018 8:00 PM 76 40 0 0 2.1
5/9/2018 9:00 PM 74 43 0 0 1.36
5/9/2018 10:00 PM 71 50 0 0 0.32
5/9/2018 11:00 PM 67 61 0 0 0.01
Data Summary 72 53 25.01 0.00 1.80